sensor_id;sensor_type;location;lat;lon;timestamp;P1;durP1;ratioP1;P2;durP2;ratioP2
35803;SDS011;21924;51.934;7.414;2022-11-15T00:01:48;22.67;;;12.32;;
35803;SDS011;21924;51.934;7.414;2022-11-15T00:04:32;22.77;;;12.75;;
35803;SDS011;21924;51.934;7.414;2022-11-15T00:07:17;24.48;;;12.18;;
35803;SDS011;21924;51.934;7.414;2022-11-15T00:10:01;23.58;;;12.80;;
35803;SDS011;21924;51.934;7.414;2022-11-15T00:12:46;26.80;;;13.63;;
35803;SDS011;21924;51.934;7.414;2022-11-15T00:15:30;19.60;;;11.93;;
35803;SDS011;21924;51.934;7.414;2022-11-15T00:18:15;23.10;;;12.90;;
35803;SDS011;21924;51.934;7.414;2022-11-15T00:21:04;23.98;;;12.85;;
35803;SDS011;21924;51.934;7.414;2022-11-15T00:23:50;24.20;;;10.95;;
35803;SDS011;21924;51.934;7.414;2022-11-15T00:26:34;23.27;;;12.40;;
35803;SDS011;21924;51.934;7.414;2022-11-15T00:29:18;22.65;;;11.68;;
35803;SDS011;21924;51.934;7.414;2022-11-15T00:32:02;24.17;;;12.00;;
35803;SDS011;21924;51.934;7.414;2022-11-15T00:34:47;25.90;;;12.35;;
35803;SDS011;21924;51.934;7.414;2022-11-15T00:37:31;25.23;;;11.95;;
35803;SDS011;21924;51.934;7.414;2022-11-15T00:40:15;22.35;;;11.35;;
35803;SDS011;21924;51.934;7.414;2022-11-15T00:42:59;22.25;;;11.45;;
35803;SDS011;21924;51.934;7.414;2022-11-15T00:45:44;23.98;;;12.52;;
35803;SDS011;21924;51.934;7.414;2022-11-15T00:48:28;21.58;;;11.95;;
35803;SDS011;21924;51.934;7.414;2022-11-15T00:51:12;22.35;;;11.75;;
35803;SDS011;21924;51.934;7.414;2022-11-15T00:53:57;22.10;;;11.70;;
35803;SDS011;21924;51.934;7.414;2022-11-15T00:56:41;24.02;;;12.25;;
35803;SDS011;21924;51.934;7.414;2022-11-15T00:59:25;22.77;;;12.68;;
35803;SDS011;21924;51.934;7.414;2022-11-15T01:02:10;20.73;;;11.52;;
35803;SDS011;21924;51.934;7.414;2022-11-15T01:04:54;22.27;;;11.63;;
35803;SDS011;21924;51.934;7.414;2022-11-15T01:07:39;21.88;;;11.88;;
35803;SDS011;21924;51.934;7.414;2022-11-15T01:10:23;24.33;;;11.95;;
35803;SDS011;21924;51.934;7.414;2022-11-15T01:13:07;19.75;;;11.70;;
35803;SDS011;21924;51.934;7.414;2022-11-15T01:15:52;18.30;;;11.05;;
35803;SDS011;21924;51.934;7.414;2022-11-15T01:18:36;21.58;;;10.73;;
35803;SDS011;21924;51.934;7.414;2022-11-15T01:21:21;22.55;;;11.52;;
35803;SDS011;21924;51.934;7.414;2022-11-15T01:24:05;21.77;;;11.85;;
35803;SDS011;21924;51.934;7.414;2022-11-15T01:26:49;23.52;;;11.93;;
35803;SDS011;21924;51.934;7.414;2022-11-15T01:29:34;22.35;;;12.10;;
35803;SDS011;21924;51.934;7.414;2022-11-15T01:32:18;25.50;;;11.98;;
35803;SDS011;21924;51.934;7.414;2022-11-15T01:35:02;21.58;;;10.48;;
35803;SDS011;21924;51.934;7.414;2022-11-15T01:37:47;24.88;;;11.63;;
35803;SDS011;21924;51.934;7.414;2022-11-15T01:40:31;23.95;;;11.02;;
35803;SDS011;21924;51.934;7.414;2022-11-15T01:43:22;23.88;;;11.48;;
35803;SDS011;21924;51.934;7.414;2022-11-15T01:46:28;19.73;;;11.18;;
35803;SDS011;21924;51.934;7.414;2022-11-15T01:49:20;21.92;;;10.73;;
35803;SDS011;21924;51.934;7.414;2022-11-15T01:52:07;22.25;;;10.95;;
35803;SDS011;21924;51.934;7.414;2022-11-15T01:57:42;24.08;;;11.05;;
35803;SDS011;21924;51.934;7.414;2022-11-15T02:00:30;23.10;;;11.95;;
35803;SDS011;21924;51.934;7.414;2022-11-15T02:03:15;17.92;;;10.80;;
35803;SDS011;21924;51.934;7.414;2022-11-15T02:06:00;22.55;;;11.63;;
35803;SDS011;21924;51.934;7.414;2022-11-15T02:08:45;24.38;;;12.43;;
35803;SDS011;21924;51.934;7.414;2022-11-15T02:11:29;23.08;;;10.43;;
35803;SDS011;21924;51.934;7.414;2022-11-15T02:14:14;20.02;;;10.85;;
35803;SDS011;21924;51.934;7.414;2022-11-15T02:27:03;21.65;;;10.75;;
35803;SDS011;21924;51.934;7.414;2022-11-15T02:36:36;22.42;;;12.55;;
35803;SDS011;21924;51.934;7.414;2022-11-15T02:39:46;26.10;;;11.40;;
35803;SDS011;21924;51.934;7.414;2022-11-15T02:42:41;23.83;;;11.60;;
35803;SDS011;21924;51.934;7.414;2022-11-15T02:45:52;18.83;;;10.38;;
35803;SDS011;21924;51.934;7.414;2022-11-15T02:48:43;23.80;;;10.95;;
35803;SDS011;21924;51.934;7.414;2022-11-15T02:51:29;19.00;;;10.73;;
35803;SDS011;21924;51.934;7.414;2022-11-15T02:54:23;21.48;;;10.98;;
35803;SDS011;21924;51.934;7.414;2022-11-15T02:57:14;21.42;;;11.60;;
35803;SDS011;21924;51.934;7.414;2022-11-15T03:00:06;20.05;;;11.43;;
35803;SDS011;21924;51.934;7.414;2022-11-15T03:03:08;19.15;;;10.88;;
35803;SDS011;21924;51.934;7.414;2022-11-15T03:06:31;20.30;;;11.68;;
35803;SDS011;21924;51.934;7.414;2022-11-15T03:09:35;18.17;;;10.60;;
35803;SDS011;21924;51.934;7.414;2022-11-15T03:12:33;26.77;;;12.55;;
35803;SDS011;21924;51.934;7.414;2022-11-15T03:15:28;20.92;;;11.10;;
35803;SDS011;21924;51.934;7.414;2022-11-15T03:18:17;21.73;;;10.70;;
35803;SDS011;21924;51.934;7.414;2022-11-15T03:21:06;22.85;;;11.25;;
35803;SDS011;21924;51.934;7.414;2022-11-15T03:23:53;20.30;;;11.77;;
35803;SDS011;21924;51.934;7.414;2022-11-15T03:26:39;23.30;;;12.48;;
35803;SDS011;21924;51.934;7.414;2022-11-15T03:29:28;19.10;;;10.98;;
35803;SDS011;21924;51.934;7.414;2022-11-15T03:32:18;20.75;;;11.77;;
35803;SDS011;21924;51.934;7.414;2022-11-15T03:35:11;19.83;;;10.95;;
35803;SDS011;21924;51.934;7.414;2022-11-15T03:41:05;21.33;;;11.25;;
35803;SDS011;21924;51.934;7.414;2022-11-15T03:44:04;19.33;;;11.48;;
35803;SDS011;21924;51.934;7.414;2022-11-15T03:47:20;19.27;;;11.85;;
35803;SDS011;21924;51.934;7.414;2022-11-15T03:50:11;22.35;;;10.52;;
35803;SDS011;21924;51.934;7.414;2022-11-15T03:52:59;19.67;;;11.15;;
35803;SDS011;21924;51.934;7.414;2022-11-15T03:55:44;23.30;;;11.10;;
35803;SDS011;21924;51.934;7.414;2022-11-15T03:58:28;22.33;;;11.27;;
35803;SDS011;21924;51.934;7.414;2022-11-15T04:01:12;20.00;;;11.88;;
35803;SDS011;21924;51.934;7.414;2022-11-15T04:03:56;26.70;;;13.82;;
35803;SDS011;21924;51.934;7.414;2022-11-15T04:06:41;24.80;;;11.93;;
35803;SDS011;21924;51.934;7.414;2022-11-15T04:09:25;21.27;;;11.20;;
35803;SDS011;21924;51.934;7.414;2022-11-15T04:12:10;22.92;;;11.73;;
35803;SDS011;21924;51.934;7.414;2022-11-15T04:14:54;19.83;;;11.20;;
35803;SDS011;21924;51.934;7.414;2022-11-15T04:20:36;15.77;;;10.20;;
35803;SDS011;21924;51.934;7.414;2022-11-15T04:23:39;20.90;;;10.13;;
35803;SDS011;21924;51.934;7.414;2022-11-15T04:26:49;18.42;;;11.57;;
35803;SDS011;21924;51.934;7.414;2022-11-15T04:29:33;18.08;;;10.15;;
35803;SDS011;21924;51.934;7.414;2022-11-15T04:32:17;25.33;;;10.85;;
35803;SDS011;21924;51.934;7.414;2022-11-15T04:35:02;21.02;;;10.27;;
35803;SDS011;21924;51.934;7.414;2022-11-15T04:37:46;23.23;;;10.00;;
35803;SDS011;21924;51.934;7.414;2022-11-15T04:40:30;20.25;;;10.32;;
35803;SDS011;21924;51.934;7.414;2022-11-15T04:43:14;22.42;;;9.80;;
35803;SDS011;21924;51.934;7.414;2022-11-15T04:45:58;24.85;;;9.73;;
35803;SDS011;21924;51.934;7.414;2022-11-15T04:48:43;14.85;;;9.23;;
35803;SDS011;21924;51.934;7.414;2022-11-15T04:51:27;15.05;;;9.13;;
35803;SDS011;21924;51.934;7.414;2022-11-15T04:54:11;19.95;;;9.60;;
35803;SDS011;21924;51.934;7.414;2022-11-15T04:56:55;20.63;;;10.50;;
35803;SDS011;21924;51.934;7.414;2022-11-15T04:59:40;17.15;;;9.75;;
35803;SDS011;21924;51.934;7.414;2022-11-15T05:02:24;18.80;;;10.80;;
35803;SDS011;21924;51.934;7.414;2022-11-15T05:05:28;15.70;;;9.63;;
35803;SDS011;21924;51.934;7.414;2022-11-15T05:08:12;18.92;;;9.32;;
35803;SDS011;21924;51.934;7.414;2022-11-15T05:10:56;15.38;;;9.10;;
35803;SDS011;21924;51.934;7.414;2022-11-15T05:13:40;20.02;;;9.48;;
35803;SDS011;21924;51.934;7.414;2022-11-15T05:16:25;18.70;;;9.88;;
35803;SDS011;21924;51.934;7.414;2022-11-15T05:19:09;16.80;;;10.10;;
35803;SDS011;21924;51.934;7.414;2022-11-15T05:21:53;15.27;;;8.93;;
35803;SDS011;21924;51.934;7.414;2022-11-15T05:24:37;17.15;;;10.02;;
35803;SDS011;21924;51.934;7.414;2022-11-15T05:27:21;14.30;;;9.68;;
35803;SDS011;21924;51.934;7.414;2022-11-15T05:30:06;16.27;;;9.63;;
35803;SDS011;21924;51.934;7.414;2022-11-15T05:32:51;25.20;;;10.90;;
35803;SDS011;21924;51.934;7.414;2022-11-15T05:35:38;17.63;;;10.00;;
35803;SDS011;21924;51.934;7.414;2022-11-15T05:38:25;21.20;;;9.48;;
35803;SDS011;21924;51.934;7.414;2022-11-15T05:41:09;16.05;;;9.63;;
35803;SDS011;21924;51.934;7.414;2022-11-15T05:43:54;18.80;;;10.07;;
35803;SDS011;21924;51.934;7.414;2022-11-15T05:46:39;17.67;;;10.43;;
35803;SDS011;21924;51.934;7.414;2022-11-15T05:49:26;19.58;;;10.15;;
35803;SDS011;21924;51.934;7.414;2022-11-15T05:52:16;29.33;;;10.23;;
35803;SDS011;21924;51.934;7.414;2022-11-15T05:55:03;22.02;;;10.60;;
35803;SDS011;21924;51.934;7.414;2022-11-15T05:57:50;19.48;;;10.75;;
35803;SDS011;21924;51.934;7.414;2022-11-15T06:00:34;19.70;;;10.43;;
35803;SDS011;21924;51.934;7.414;2022-11-15T06:03:18;19.45;;;10.63;;
35803;SDS011;21924;51.934;7.414;2022-11-15T06:06:02;20.30;;;10.15;;
35803;SDS011;21924;51.934;7.414;2022-11-15T06:08:47;21.13;;;9.70;;
35803;SDS011;21924;51.934;7.414;2022-11-15T06:11:31;22.13;;;10.98;;
35803;SDS011;21924;51.934;7.414;2022-11-15T06:14:15;22.00;;;10.55;;
35803;SDS011;21924;51.934;7.414;2022-11-15T06:17:00;16.17;;;10.85;;
35803;SDS011;21924;51.934;7.414;2022-11-15T06:19:44;29.35;;;10.30;;
35803;SDS011;21924;51.934;7.414;2022-11-15T06:22:28;16.90;;;9.52;;
35803;SDS011;21924;51.934;7.414;2022-11-15T06:25:12;18.20;;;9.98;;
35803;SDS011;21924;51.934;7.414;2022-11-15T06:27:57;19.58;;;10.23;;
35803;SDS011;21924;51.934;7.414;2022-11-15T06:30:42;20.90;;;10.85;;
35803;SDS011;21924;51.934;7.414;2022-11-15T06:33:26;18.58;;;9.95;;
35803;SDS011;21924;51.934;7.414;2022-11-15T06:36:12;18.17;;;10.75;;
35803;SDS011;21924;51.934;7.414;2022-11-15T06:39:00;16.65;;;9.93;;
35803;SDS011;21924;51.934;7.414;2022-11-15T06:41:44;19.70;;;10.50;;
35803;SDS011;21924;51.934;7.414;2022-11-15T06:44:29;21.00;;;10.25;;
35803;SDS011;21924;51.934;7.414;2022-11-15T06:47:13;21.05;;;10.57;;
35803;SDS011;21924;51.934;7.414;2022-11-15T06:49:57;20.35;;;11.23;;
35803;SDS011;21924;51.934;7.414;2022-11-15T06:52:42;19.02;;;10.35;;
35803;SDS011;21924;51.934;7.414;2022-11-15T06:55:26;17.00;;;10.32;;
35803;SDS011;21924;51.934;7.414;2022-11-15T06:58:10;19.27;;;9.50;;
35803;SDS011;21924;51.934;7.414;2022-11-15T07:00:57;18.48;;;10.48;;
35803;SDS011;21924;51.934;7.414;2022-11-15T07:03:46;19.30;;;10.13;;
35803;SDS011;21924;51.934;7.414;2022-11-15T07:06:30;17.65;;;9.95;;
35803;SDS011;21924;51.934;7.414;2022-11-15T07:09:14;14.43;;;10.15;;
35803;SDS011;21924;51.934;7.414;2022-11-15T07:11:58;22.10;;;11.10;;
35803;SDS011;21924;51.934;7.414;2022-11-15T07:14:43;15.00;;;10.15;;
35803;SDS011;21924;51.934;7.414;2022-11-15T07:17:27;20.45;;;10.48;;
35803;SDS011;21924;51.934;7.414;2022-11-15T07:20:11;21.23;;;11.75;;
35803;SDS011;21924;51.934;7.414;2022-11-15T07:23:00;21.47;;;11.10;;
35803;SDS011;21924;51.934;7.414;2022-11-15T07:25:47;19.65;;;10.93;;
35803;SDS011;21924;51.934;7.414;2022-11-15T07:28:33;20.05;;;11.05;;
35803;SDS011;21924;51.934;7.414;2022-11-15T07:31:17;24.75;;;10.63;;
35803;SDS011;21924;51.934;7.414;2022-11-15T07:34:01;17.50;;;9.82;;
35803;SDS011;21924;51.934;7.414;2022-11-15T07:36:45;20.52;;;10.30;;
35803;SDS011;21924;51.934;7.414;2022-11-15T07:39:30;17.52;;;10.38;;
35803;SDS011;21924;51.934;7.414;2022-11-15T07:42:14;16.13;;;10.07;;
35803;SDS011;21924;51.934;7.414;2022-11-15T07:45:17;21.23;;;11.15;;
35803;SDS011;21924;51.934;7.414;2022-11-15T07:48:03;16.58;;;9.65;;
35803;SDS011;21924;51.934;7.414;2022-11-15T07:50:47;17.83;;;10.30;;
35803;SDS011;21924;51.934;7.414;2022-11-15T07:53:31;14.98;;;8.93;;
35803;SDS011;21924;51.934;7.414;2022-11-15T07:56:16;22.08;;;9.52;;
35803;SDS011;21924;51.934;7.414;2022-11-15T07:59:00;17.13;;;10.52;;
35803;SDS011;21924;51.934;7.414;2022-11-15T08:01:44;18.40;;;10.13;;
35803;SDS011;21924;51.934;7.414;2022-11-15T08:04:28;15.00;;;8.93;;
35803;SDS011;21924;51.934;7.414;2022-11-15T08:07:13;20.35;;;8.98;;
35803;SDS011;21924;51.934;7.414;2022-11-15T08:09:57;21.90;;;9.63;;
35803;SDS011;21924;51.934;7.414;2022-11-15T08:12:42;14.52;;;8.35;;
35803;SDS011;21924;51.934;7.414;2022-11-15T08:15:26;14.23;;;9.02;;
35803;SDS011;21924;51.934;7.414;2022-11-15T08:18:13;16.02;;;8.88;;
35803;SDS011;21924;51.934;7.414;2022-11-15T08:21:00;14.45;;;9.13;;
35803;SDS011;21924;51.934;7.414;2022-11-15T08:23:45;15.55;;;10.20;;
35803;SDS011;21924;51.934;7.414;2022-11-15T08:26:29;16.17;;;9.13;;
35803;SDS011;21924;51.934;7.414;2022-11-15T08:29:14;15.30;;;8.88;;
35803;SDS011;21924;51.934;7.414;2022-11-15T08:31:58;13.00;;;8.38;;
35803;SDS011;21924;51.934;7.414;2022-11-15T08:34:42;12.27;;;7.78;;
35803;SDS011;21924;51.934;7.414;2022-11-15T08:37:26;16.27;;;7.95;;
35803;SDS011;21924;51.934;7.414;2022-11-15T08:40:11;13.98;;;7.47;;
35803;SDS011;21924;51.934;7.414;2022-11-15T08:42:56;14.40;;;7.13;;
35803;SDS011;21924;51.934;7.414;2022-11-15T08:45:40;11.85;;;7.63;;
35803;SDS011;21924;51.934;7.414;2022-11-15T08:48:24;10.00;;;6.53;;
35803;SDS011;21924;51.934;7.414;2022-11-15T08:51:08;9.80;;;5.88;;
35803;SDS011;21924;51.934;7.414;2022-11-15T08:53:53;13.55;;;6.07;;
35803;SDS011;21924;51.934;7.414;2022-11-15T08:56:37;8.55;;;5.72;;
35803;SDS011;21924;51.934;7.414;2022-11-15T08:59:21;8.15;;;5.43;;
35803;SDS011;21924;51.934;7.414;2022-11-15T09:02:06;6.32;;;4.32;;
35803;SDS011;21924;51.934;7.414;2022-11-15T09:04:54;7.90;;;4.45;;
35803;SDS011;21924;51.934;7.414;2022-11-15T09:07:39;5.93;;;3.67;;
35803;SDS011;21924;51.934;7.414;2022-11-15T09:10:23;5.13;;;3.78;;
35803;SDS011;21924;51.934;7.414;2022-11-15T09:13:08;4.55;;;3.60;;
35803;SDS011;21924;51.934;7.414;2022-11-15T09:15:52;5.00;;;3.28;;
35803;SDS011;21924;51.934;7.414;2022-11-15T09:18:42;6.88;;;4.03;;
35803;SDS011;21924;51.934;7.414;2022-11-15T09:21:26;6.18;;;3.00;;
35803;SDS011;21924;51.934;7.414;2022-11-15T09:24:12;3.72;;;2.97;;
35803;SDS011;21924;51.934;7.414;2022-11-15T09:26:57;4.03;;;3.03;;
35803;SDS011;21924;51.934;7.414;2022-11-15T09:29:41;3.85;;;3.45;;
35803;SDS011;21924;51.934;7.414;2022-11-15T09:32:28;5.00;;;2.72;;
35803;SDS011;21924;51.934;7.414;2022-11-15T09:35:13;4.80;;;3.25;;
35803;SDS011;21924;51.934;7.414;2022-11-15T09:37:58;4.13;;;3.25;;
35803;SDS011;21924;51.934;7.414;2022-11-15T09:40:42;3.85;;;2.85;;
35803;SDS011;21924;51.934;7.414;2022-11-15T09:43:35;4.30;;;3.03;;
35803;SDS011;21924;51.934;7.414;2022-11-15T09:46:34;4.60;;;2.97;;
35803;SDS011;21924;51.934;7.414;2022-11-15T09:49:50;3.38;;;2.90;;
35803;SDS011;21924;51.934;7.414;2022-11-15T09:52:36;4.60;;;3.08;;
35803;SDS011;21924;51.934;7.414;2022-11-15T09:55:30;3.35;;;2.80;;
35803;SDS011;21924;51.934;7.414;2022-11-15T09:58:39;3.30;;;2.78;;
35803;SDS011;21924;51.934;7.414;2022-11-15T10:04:50;4.53;;;2.00;;
35803;SDS011;21924;51.934;7.414;2022-11-15T10:10:44;5.57;;;1.88;;
35803;SDS011;21924;51.934;7.414;2022-11-15T10:13:31;4.05;;;1.83;;
35803;SDS011;21924;51.934;7.414;2022-11-15T10:22:40;2.25;;;1.88;;
35803;SDS011;21924;51.934;7.414;2022-11-15T10:25:31;2.88;;;2.10;;
35803;SDS011;21924;51.934;7.414;2022-11-15T10:31:20;4.20;;;2.38;;
35803;SDS011;21924;51.934;7.414;2022-11-15T10:36:58;5.07;;;2.00;;
35803;SDS011;21924;51.934;7.414;2022-11-15T10:39:44;2.45;;;2.15;;
35803;SDS011;21924;51.934;7.414;2022-11-15T10:43:06;7.30;;;3.25;;
35803;SDS011;21924;51.934;7.414;2022-11-15T10:45:53;2.40;;;1.92;;
35803;SDS011;21924;51.934;7.414;2022-11-15T10:48:37;1.63;;;1.52;;
35803;SDS011;21924;51.934;7.414;2022-11-15T10:51:26;5.00;;;2.10;;
35803;SDS011;21924;51.934;7.414;2022-11-15T10:54:12;2.05;;;1.83;;
35803;SDS011;21924;51.934;7.414;2022-11-15T10:57:06;2.30;;;2.03;;
35803;SDS011;21924;51.934;7.414;2022-11-15T11:00:47;4.35;;;2.38;;
35803;SDS011;21924;51.934;7.414;2022-11-15T11:03:29;13.10;;;2.50;;
35803;SDS011;21924;51.934;7.414;2022-11-15T11:06:17;5.13;;;2.67;;
35803;SDS011;21924;51.934;7.414;2022-11-15T11:09:03;2.33;;;2.13;;
35803;SDS011;21924;51.934;7.414;2022-11-15T11:11:50;2.88;;;2.13;;
35803;SDS011;21924;51.934;7.414;2022-11-15T11:26:25;6.82;;;1.70;;
35803;SDS011;21924;51.934;7.414;2022-11-15T11:36:01;3.67;;;1.90;;
35803;SDS011;21924;51.934;7.414;2022-11-15T11:39:11;2.42;;;1.75;;
35803;SDS011;21924;51.934;7.414;2022-11-15T11:47:42;2.08;;;1.67;;
35803;SDS011;21924;51.934;7.414;2022-11-15T11:50:32;6.78;;;1.75;;
35803;SDS011;21924;51.934;7.414;2022-11-15T11:53:37;3.20;;;1.52;;
35803;SDS011;21924;51.934;7.414;2022-11-15T11:56:25;2.70;;;1.55;;
35803;SDS011;21924;51.934;7.414;2022-11-15T11:59:16;1.35;;;1.25;;
35803;SDS011;21924;51.934;7.414;2022-11-15T12:02:14;1.73;;;1.50;;
35803;SDS011;21924;51.934;7.414;2022-11-15T12:05:10;2.83;;;1.83;;
35803;SDS011;21924;51.934;7.414;2022-11-15T12:08:03;1.60;;;1.50;;
35803;SDS011;21924;51.934;7.414;2022-11-15T12:11:10;3.65;;;1.90;;
35803;SDS011;21924;51.934;7.414;2022-11-15T12:13:59;2.88;;;1.60;;
35803;SDS011;21924;51.934;7.414;2022-11-15T12:16:47;3.22;;;1.65;;
35803;SDS011;21924;51.934;7.414;2022-11-15T12:19:31;2.78;;;1.63;;
35803;SDS011;21924;51.934;7.414;2022-11-15T12:25:16;2.05;;;1.63;;
35803;SDS011;21924;51.934;7.414;2022-11-15T12:37:02;1.85;;;1.65;;
35803;SDS011;21924;51.934;7.414;2022-11-15T12:44:02;2.55;;;1.42;;
35803;SDS011;21924;51.934;7.414;2022-11-15T12:52:19;1.80;;;1.45;;
35803;SDS011;21924;51.934;7.414;2022-11-15T12:55:27;1.90;;;1.52;;
35803;SDS011;21924;51.934;7.414;2022-11-15T12:58:28;2.35;;;1.50;;
35803;SDS011;21924;51.934;7.414;2022-11-15T13:07:04;3.53;;;2.05;;
35803;SDS011;21924;51.934;7.414;2022-11-15T13:09:51;3.53;;;1.42;;
35803;SDS011;21924;51.934;7.414;2022-11-15T13:12:48;3.60;;;1.63;;
35803;SDS011;21924;51.934;7.414;2022-11-15T13:18:57;1.70;;;1.60;;
35803;SDS011;21924;51.934;7.414;2022-11-15T13:21:47;1.85;;;1.52;;
35803;SDS011;21924;51.934;7.414;2022-11-15T13:24:52;4.38;;;1.90;;
35803;SDS011;21924;51.934;7.414;2022-11-15T13:27:36;5.22;;;1.60;;
35803;SDS011;21924;51.934;7.414;2022-11-15T13:30:27;4.18;;;1.70;;
35803;SDS011;21924;51.934;7.414;2022-11-15T13:33:16;1.67;;;1.58;;
35803;SDS011;21924;51.934;7.414;2022-11-15T13:36:22;1.45;;;1.35;;
35803;SDS011;21924;51.934;7.414;2022-11-15T13:39:27;2.08;;;1.73;;
35803;SDS011;21924;51.934;7.414;2022-11-15T13:42:17;2.40;;;1.67;;
35803;SDS011;21924;51.934;7.414;2022-11-15T13:45:04;1.60;;;1.50;;
35803;SDS011;21924;51.934;7.414;2022-11-15T13:47:56;3.85;;;1.50;;
35803;SDS011;21924;51.934;7.414;2022-11-15T13:50:41;3.67;;;1.50;;
35803;SDS011;21924;51.934;7.414;2022-11-15T13:53:26;1.58;;;1.48;;
35803;SDS011;21924;51.934;7.414;2022-11-15T13:56:11;1.55;;;1.42;;
35803;SDS011;21924;51.934;7.414;2022-11-15T13:58:56;1.70;;;1.60;;
35803;SDS011;21924;51.934;7.414;2022-11-15T14:01:41;1.60;;;1.50;;
35803;SDS011;21924;51.934;7.414;2022-11-15T14:07:18;7.55;;;1.88;;
35803;SDS011;21924;51.934;7.414;2022-11-15T14:10:24;1.70;;;1.48;;
35803;SDS011;21924;51.934;7.414;2022-11-15T14:13:29;2.13;;;1.60;;
35803;SDS011;21924;51.934;7.414;2022-11-15T14:16:18;2.58;;;1.60;;
35803;SDS011;21924;51.934;7.414;2022-11-15T14:19:05;5.30;;;1.70;;
35803;SDS011;21924;51.934;7.414;2022-11-15T14:22:13;2.25;;;1.52;;
35803;SDS011;21924;51.934;7.414;2022-11-15T14:31:10;5.03;;;2.40;;
35803;SDS011;21924;51.934;7.414;2022-11-15T14:33:56;14.55;;;2.88;;
35803;SDS011;21924;51.934;7.414;2022-11-15T14:36:40;3.13;;;2.10;;
35803;SDS011;21924;51.934;7.414;2022-11-15T14:39:24;2.97;;;2.13;;
35803;SDS011;21924;51.934;7.414;2022-11-15T14:42:09;1.88;;;1.65;;
35803;SDS011;21924;51.934;7.414;2022-11-15T14:44:53;1.70;;;1.60;;
35803;SDS011;21924;51.934;7.414;2022-11-15T14:47:38;3.70;;;1.85;;
35803;SDS011;21924;51.934;7.414;2022-11-15T14:50:22;6.22;;;1.98;;
35803;SDS011;21924;51.934;7.414;2022-11-15T14:53:06;5.03;;;2.55;;
35803;SDS011;21924;51.934;7.414;2022-11-15T14:55:50;10.60;;;2.85;;
35803;SDS011;21924;51.934;7.414;2022-11-15T14:58:35;8.88;;;2.35;;
35803;SDS011;21924;51.934;7.414;2022-11-15T15:01:20;11.13;;;2.67;;
35803;SDS011;21924;51.934;7.414;2022-11-15T15:04:08;2.63;;;1.88;;
35803;SDS011;21924;51.934;7.414;2022-11-15T15:06:53;2.75;;;1.83;;
35803;SDS011;21924;51.934;7.414;2022-11-15T15:09:37;2.08;;;1.92;;
35803;SDS011;21924;51.934;7.414;2022-11-15T15:12:23;4.15;;;1.90;;
35803;SDS011;21924;51.934;7.414;2022-11-15T15:15:26;2.47;;;2.15;;
35803;SDS011;21924;51.934;7.414;2022-11-15T15:18:16;7.72;;;2.78;;
35803;SDS011;21924;51.934;7.414;2022-11-15T15:21:01;6.55;;;3.83;;
35803;SDS011;21924;51.934;7.414;2022-11-15T15:23:51;11.10;;;4.22;;
35803;SDS011;21924;51.934;7.414;2022-11-15T15:26:37;8.60;;;3.17;;
35803;SDS011;21924;51.934;7.414;2022-11-15T15:29:22;6.72;;;3.00;;
35803;SDS011;21924;51.934;7.414;2022-11-15T15:32:07;15.52;;;3.00;;
35803;SDS011;21924;51.934;7.414;2022-11-15T15:34:52;2.85;;;2.55;;
35803;SDS011;21924;51.934;7.414;2022-11-15T15:37:37;4.68;;;2.70;;
35803;SDS011;21924;51.934;7.414;2022-11-15T15:40:21;5.82;;;2.55;;
35803;SDS011;21924;51.934;7.414;2022-11-15T15:43:07;2.35;;;1.88;;
35803;SDS011;21924;51.934;7.414;2022-11-15T15:45:52;4.90;;;2.58;;
35803;SDS011;21924;51.934;7.414;2022-11-15T15:48:37;3.30;;;2.70;;
35803;SDS011;21924;51.934;7.414;2022-11-15T15:51:23;3.30;;;2.25;;
35803;SDS011;21924;51.934;7.414;2022-11-15T15:54:07;7.50;;;3.25;;
35803;SDS011;21924;51.934;7.414;2022-11-15T15:56:51;8.35;;;4.47;;
35803;SDS011;21924;51.934;7.414;2022-11-15T15:59:36;5.82;;;3.88;;
35803;SDS011;21924;51.934;7.414;2022-11-15T16:02:20;6.55;;;3.75;;
35803;SDS011;21924;51.934;7.414;2022-11-15T16:05:05;8.65;;;4.40;;
35803;SDS011;21924;51.934;7.414;2022-11-15T16:07:49;10.48;;;4.07;;
35803;SDS011;21924;51.934;7.414;2022-11-15T16:10:34;5.03;;;3.58;;
35803;SDS011;21924;51.934;7.414;2022-11-15T16:13:18;3.63;;;2.78;;
35803;SDS011;21924;51.934;7.414;2022-11-15T16:16:02;5.07;;;2.60;;
35803;SDS011;21924;51.934;7.414;2022-11-15T16:18:51;4.35;;;2.75;;
35803;SDS011;21924;51.934;7.414;2022-11-15T16:21:37;10.13;;;3.55;;
35803;SDS011;21924;51.934;7.414;2022-11-15T16:24:21;4.80;;;3.17;;
35803;SDS011;21924;51.934;7.414;2022-11-15T16:27:10;7.78;;;3.15;;
35803;SDS011;21924;51.934;7.414;2022-11-15T16:29:58;6.22;;;3.08;;
35803;SDS011;21924;51.934;7.414;2022-11-15T16:32:42;3.65;;;2.40;;
35803;SDS011;21924;51.934;7.414;2022-11-15T16:35:26;4.35;;;2.80;;
35803;SDS011;21924;51.934;7.414;2022-11-15T16:38:14;5.70;;;2.78;;
35803;SDS011;21924;51.934;7.414;2022-11-15T16:40:59;7.50;;;3.55;;
35803;SDS011;21924;51.934;7.414;2022-11-15T16:43:44;7.53;;;4.97;;
35803;SDS011;21924;51.934;7.414;2022-11-15T16:46:29;6.38;;;4.22;;
35803;SDS011;21924;51.934;7.414;2022-11-15T16:49:13;8.52;;;3.65;;
35803;SDS011;21924;51.934;7.414;2022-11-15T16:51:58;3.38;;;2.75;;
35803;SDS011;21924;51.934;7.414;2022-11-15T16:54:42;8.57;;;3.47;;
35803;SDS011;21924;51.934;7.414;2022-11-15T16:57:26;8.32;;;3.22;;
35803;SDS011;21924;51.934;7.414;2022-11-15T17:00:11;5.35;;;3.20;;
35803;SDS011;21924;51.934;7.414;2022-11-15T17:02:59;8.00;;;3.70;;
35803;SDS011;21924;51.934;7.414;2022-11-15T17:05:43;6.40;;;3.50;;
35803;SDS011;21924;51.934;7.414;2022-11-15T17:08:27;9.52;;;4.50;;
35803;SDS011;21924;51.934;7.414;2022-11-15T17:11:16;11.77;;;3.97;;
35803;SDS011;21924;51.934;7.414;2022-11-15T17:14:02;7.20;;;3.47;;
35803;SDS011;21924;51.934;7.414;2022-11-15T17:16:46;12.68;;;4.88;;
35803;SDS011;21924;51.934;7.414;2022-11-15T17:19:30;16.17;;;6.68;;
35803;SDS011;21924;51.934;7.414;2022-11-15T17:22:15;9.10;;;4.15;;
35803;SDS011;21924;51.934;7.414;2022-11-15T17:24:59;6.13;;;4.10;;
35803;SDS011;21924;51.934;7.414;2022-11-15T17:27:43;5.97;;;2.80;;
35803;SDS011;21924;51.934;7.414;2022-11-15T17:30:27;5.85;;;3.10;;
35803;SDS011;21924;51.934;7.414;2022-11-15T17:33:12;6.57;;;3.03;;
35803;SDS011;21924;51.934;7.414;2022-11-15T17:35:56;5.93;;;3.58;;
35803;SDS011;21924;51.934;7.414;2022-11-15T17:38:42;5.20;;;2.92;;
35803;SDS011;21924;51.934;7.414;2022-11-15T17:41:27;5.05;;;2.95;;
35803;SDS011;21924;51.934;7.414;2022-11-15T17:44:12;6.20;;;4.10;;
35803;SDS011;21924;51.934;7.414;2022-11-15T17:46:56;11.63;;;4.60;;
35803;SDS011;21924;51.934;7.414;2022-11-15T17:49:40;4.55;;;3.08;;
35803;SDS011;21924;51.934;7.414;2022-11-15T17:52:25;6.22;;;3.08;;
35803;SDS011;21924;51.934;7.414;2022-11-15T17:55:09;8.45;;;3.15;;
35803;SDS011;21924;51.934;7.414;2022-11-15T17:57:53;5.15;;;3.03;;
35803;SDS011;21924;51.934;7.414;2022-11-15T18:00:37;4.50;;;3.33;;
35803;SDS011;21924;51.934;7.414;2022-11-15T18:03:22;5.28;;;4.25;;
35803;SDS011;21924;51.934;7.414;2022-11-15T18:06:06;6.88;;;3.47;;
35803;SDS011;21924;51.934;7.414;2022-11-15T18:08:52;11.35;;;5.13;;
35803;SDS011;21924;51.934;7.414;2022-11-15T18:11:40;7.65;;;4.30;;
35803;SDS011;21924;51.934;7.414;2022-11-15T18:14:25;6.13;;;4.13;;
35803;SDS011;21924;51.934;7.414;2022-11-15T18:17:10;9.55;;;4.80;;
35803;SDS011;21924;51.934;7.414;2022-11-15T18:19:54;8.15;;;3.85;;
35803;SDS011;21924;51.934;7.414;2022-11-15T18:22:38;8.77;;;3.88;;
35803;SDS011;21924;51.934;7.414;2022-11-15T18:25:22;4.80;;;3.55;;